Plains, Texas
Current Conditions -  °F | °C
As of 8:15 AM on Friday 24 Oct 2014 (Local Time) from KGNC Reporting Station
Haze Haze  
Wind Chill: 55°   Ceiling: Unl
Heat Index: 55°   Visibility: 3mi
Dew Point: 55°   Wind: 5mph
Humidity: 99%   Direction: 270°W
Pressure: 30.18"   Gusts: NA
Location:  33.19°N, 102.83°W
Report Text: KGNC 241315Z AUTO 27004KT 3SM BR CLR 13/13 A3018 RMK AO2 T01300129
Loading
Personal Weather Stations






























Interactive Weather Map
Tropical Storm Tracking
New forecast layout! Learn more

10-Day Weather Forecast

Advertisements
Track Severe Weather on mobile